createdAt,value
2019-03-25T00:00:38.857Z,1019.29
2019-03-25T00:01:39.357Z,1019.25
2019-03-25T00:02:38.881Z,1019.22
2019-03-25T00:03:38.903Z,1019.22
2019-03-25T00:04:38.941Z,1019.20
2019-03-25T00:06:39.054Z,1019.16
2019-03-25T00:07:39.023Z,1019.11
2019-03-25T00:08:39.411Z,1019.14
2019-03-25T00:09:39.141Z,1019.10
2019-03-25T00:12:39.181Z,1019.06
2019-03-25T00:13:39.223Z,1019.04
2019-03-25T00:14:39.250Z,1019.05
2019-03-25T00:16:39.660Z,1018.97
2019-03-25T00:17:39.394Z,1018.99
2019-03-25T00:18:39.430Z,1018.93
2019-03-25T00:19:39.404Z,1018.92
2019-03-25T00:20:39.443Z,1018.89
2019-03-25T00:21:39.512Z,1018.82
2019-03-25T00:22:39.551Z,1018.83
2019-03-25T00:23:39.890Z,1018.83
2019-03-25T00:24:39.593Z,1018.79
2019-03-25T00:25:39.663Z,1018.76
2019-03-25T00:26:39.694Z,1018.75
2019-03-25T00:27:39.663Z,1018.72
2019-03-25T00:28:39.755Z,1018.75
2019-03-25T00:29:39.777Z,1018.74
2019-03-25T00:30:40.052Z,1018.73
2019-03-25T00:31:39.786Z,1018.70
2019-03-25T00:32:39.817Z,1018.69
2019-03-25T00:33:39.846Z,1018.67
2019-03-25T00:34:39.879Z,1018.64
2019-03-25T00:35:39.963Z,1018.63
2019-03-25T00:36:39.943Z,1018.65
2019-03-25T00:37:40.324Z,1018.63
2019-03-25T00:38:40.000Z,1018.61
2019-03-25T00:39:40.036Z,1018.58
2019-03-25T00:40:40.114Z,1018.58
2019-03-25T00:41:40.100Z,1018.59
2019-03-25T00:42:40.176Z,1018.56
2019-03-25T00:43:40.163Z,1018.53
2019-03-25T00:44:40.495Z,1018.47
2019-03-25T00:45:40.222Z,1018.50
2019-03-25T00:47:40.341Z,1018.47
2019-03-25T00:48:40.315Z,1018.43
2019-03-25T00:49:40.347Z,1018.43
2019-03-25T00:50:40.391Z,1018.39
2019-03-25T00:51:40.826Z,1018.41
2019-03-25T00:53:40.480Z,1018.37
2019-03-25T00:54:49.536Z,1018.38
2019-03-25T00:55:40.536Z,1018.31
2019-03-25T00:56:40.618Z,1018.34
2019-03-25T00:57:40.667Z,1018.31
2019-03-25T00:58:40.988Z,1018.33
2019-03-25T00:59:40.661Z,1018.32
2019-03-25T01:00:40.696Z,1018.29
2019-03-25T01:01:40.778Z,1018.29
2019-03-25T01:02:40.817Z,1018.32
2019-03-25T01:03:40.794Z,1018.32
2019-03-25T01:04:40.826Z,1018.34
2019-03-25T01:05:41.206Z,1018.38
2019-03-25T01:06:40.931Z,1018.36
2019-03-25T01:07:40.968Z,1018.36
2019-03-25T01:08:41.097Z,1018.35
2019-03-25T01:09:41.027Z,1018.32
2019-03-25T01:10:41.010Z,1018.32
2019-03-25T01:11:49.086Z,1018.28
2019-03-25T01:12:41.069Z,1018.29
2019-03-25T01:13:41.162Z,1018.27
2019-03-25T01:14:41.282Z,1018.21
2019-03-25T01:15:41.168Z,1018.21
2019-03-25T01:16:41.202Z,1018.20
2019-03-25T01:17:41.286Z,1018.19
2019-03-25T01:18:41.562Z,1018.19
2019-03-25T01:19:41.348Z,1018.21
2019-03-25T01:20:41.325Z,1018.18
2019-03-25T01:21:41.406Z,1018.16
2019-03-25T01:22:41.431Z,1018.13
2019-03-25T01:23:41.414Z,1018.07
2019-03-25T01:24:41.445Z,1018.04
2019-03-25T01:25:41.778Z,1018.02
2019-03-25T01:26:41.559Z,1018.06
2019-03-25T01:27:41.544Z,1018.03
2019-03-25T01:29:41.652Z,1018.02
2019-03-25T01:30:41.697Z,1017.97
2019-03-25T01:31:42.017Z,1017.96
2019-03-25T01:32:41.698Z,1017.86
2019-03-25T01:33:41.734Z,1017.84
2019-03-25T01:34:41.848Z,1017.85
2019-03-25T01:35:41.797Z,1017.84
2019-03-25T01:36:41.830Z,1017.81
2019-03-25T01:37:42.212Z,1017.82
2019-03-25T01:38:41.901Z,1017.80
2019-03-25T01:39:41.974Z,1017.78
2019-03-25T01:40:41.955Z,1017.72
2019-03-25T01:41:41.979Z,1017.73
2019-03-25T01:42:42.070Z,1017.71
2019-03-25T01:43:42.402Z,1017.68
2019-03-25T01:44:42.092Z,1017.68
2019-03-25T01:45:42.161Z,1017.65
2019-03-25T01:46:42.141Z,1017.61
2019-03-25T01:47:42.217Z,1017.59
2019-03-25T01:48:42.248Z,1017.62
2019-03-25T01:49:42.291Z,1017.57
2019-03-25T01:50:42.567Z,1017.55
2019-03-25T01:51:42.303Z,1017.51
2019-03-25T01:52:42.331Z,1017.52
2019-03-25T01:53:42.407Z,1017.48
2019-03-25T01:54:42.439Z,1017.46
2019-03-25T01:55:42.419Z,1017.48
2019-03-25T01:56:42.454Z,1017.43
2019-03-25T01:57:42.838Z,1017.43
2019-03-25T01:58:42.510Z,1017.39
2019-03-25T01:59:42.603Z,1017.37
2019-03-25T02:00:42.581Z,1017.39
2019-03-25T02:01:42.656Z,1017.37
2019-03-25T02:02:42.686Z,1017.39
2019-03-25T02:03:42.819Z,1017.35
2019-03-25T02:04:43.049Z,1017.29
2019-03-25T02:05:42.784Z,1017.26
2019-03-25T02:06:42.812Z,1017.24
2019-03-25T02:07:42.802Z,1017.24
2019-03-25T02:08:42.824Z,1017.27
2019-03-25T02:09:42.860Z,1017.27
2019-03-25T02:11:42.968Z,1017.28
2019-03-25T02:12:43.303Z,1017.21
2019-03-25T02:13:42.979Z,1017.21
2019-03-25T02:14:43.013Z,1017.16
2019-03-25T02:15:43.070Z,1017.20
2019-03-25T02:16:43.075Z,1017.15
2019-03-25T02:17:43.161Z,1017.12
2019-03-25T02:18:43.198Z,1017.14
2019-03-25T02:19:43.466Z,1017.11
2019-03-25T02:20:43.252Z,1017.13
2019-03-25T02:21:43.283Z,1017.10
2019-03-25T02:22:43.471Z,1017.03
2019-03-25T02:23:43.297Z,1017.09
2019-03-25T02:24:43.333Z,1017.05
2019-03-25T02:25:43.406Z,1017.08
2019-03-25T02:26:43.690Z,1017.04
2019-03-25T02:27:43.465Z,1017.02
2019-03-25T02:28:43.498Z,1016.99
2019-03-25T02:29:43.481Z,1017.01
2019-03-25T02:30:43.562Z,1016.99
2019-03-25T02:31:43.591Z,1017.00
2019-03-25T02:32:43.575Z,1016.99
2019-03-25T02:33:43.956Z,1017.03
2019-03-25T02:34:43.674Z,1016.97
2019-03-25T02:35:43.730Z,1016.98
2019-03-25T02:36:43.700Z,1016.91
2019-03-25T02:37:43.777Z,1016.92
2019-03-25T02:38:43.822Z,1016.92
2019-03-25T02:39:43.799Z,1016.88
2019-03-25T02:40:44.177Z,1016.84
2019-03-25T02:41:43.906Z,1016.83
2019-03-25T02:42:43.939Z,1016.91
2019-03-25T02:43:43.917Z,1016.86
2019-03-25T02:44:43.954Z,1016.88
2019-03-25T02:45:44.046Z,1016.89
2019-03-25T02:46:44.058Z,1016.83
2019-03-25T02:47:44.352Z,1016.86
2019-03-25T02:48:44.073Z,1016.87
2019-03-25T02:49:44.150Z,1016.80
2019-03-25T02:50:44.129Z,1016.91
2019-03-25T02:51:44.211Z,1016.84
2019-03-25T02:52:44.250Z,1016.89
2019-03-25T02:53:44.241Z,1016.81
2019-03-25T02:54:44.605Z,1016.86
2019-03-25T02:55:44.348Z,1016.94
2019-03-25T02:56:44.332Z,1016.85
2019-03-25T02:57:44.406Z,1016.86
2019-03-25T02:58:44.429Z,1016.87
2019-03-25T02:59:44.410Z,1016.82
2019-03-25T03:00:44.443Z,1016.89
2019-03-25T03:01:44.824Z,1016.84
2019-03-25T03:02:44.503Z,1016.83
2019-03-25T03:03:44.591Z,1016.84
2019-03-25T03:04:44.565Z,1016.83
2019-03-25T03:05:44.673Z,1016.78
2019-03-25T03:06:44.655Z,1016.74
2019-03-25T03:07:44.705Z,1016.71
2019-03-25T03:08:47.468Z,1016.73
2019-03-25T03:09:44.767Z,1016.67
2019-03-25T03:10:44.802Z,1016.70
2019-03-25T03:11:44.782Z,1016.65
2019-03-25T03:12:44.812Z,1016.62
2019-03-25T03:13:44.899Z,1016.66
2019-03-25T03:14:44.988Z,1016.62
2019-03-25T03:15:45.252Z,1016.56
2019-03-25T03:16:44.938Z,1016.56
2019-03-25T03:17:44.969Z,1016.61
2019-03-25T03:18:45.047Z,1016.52
2019-03-25T03:19:45.077Z,1016.49
2019-03-25T03:20:45.057Z,1016.47
2019-03-25T03:21:45.142Z,1016.58
2019-03-25T03:22:45.481Z,1016.53
2019-03-25T03:23:45.155Z,1016.46
2019-03-25T03:24:45.193Z,1016.44
2019-03-25T03:25:57.420Z,1016.54
2019-03-25T03:26:45.290Z,1016.41
2019-03-25T03:27:45.325Z,1016.64
2019-03-25T03:28:45.305Z,1016.53
2019-03-25T03:29:45.685Z,1016.47
2019-03-25T03:30:45.432Z,1016.50
2019-03-25T03:31:45.410Z,1016.43
2019-03-25T03:33:45.536Z,1016.40
2019-03-25T03:34:45.491Z,1016.32
2019-03-25T03:35:46.694Z,1016.29
2019-03-25T03:36:45.919Z,1016.31
2019-03-25T03:37:45.592Z,1016.24
2019-03-25T03:38:45.662Z,1016.23
2019-03-25T03:39:45.703Z,1016.20
2019-03-25T03:40:45.673Z,1016.23
2019-03-25T03:41:45.759Z,1016.23
2019-03-25T03:42:45.733Z,1016.27
2019-03-25T03:43:46.120Z,1016.21
2019-03-25T03:44:45.805Z,1016.20
2019-03-25T03:45:45.890Z,1016.21
2019-03-25T03:46:45.858Z,1016.21
2019-03-25T03:47:45.891Z,1016.27
2019-03-25T03:48:45.973Z,1016.26
2019-03-25T03:49:46.296Z,1016.22
2019-03-25T03:50:46.037Z,1016.20
2019-03-25T03:51:46.021Z,1016.21
2019-03-25T03:52:46.090Z,1016.16
2019-03-25T03:53:46.122Z,1016.12
2019-03-25T03:54:46.165Z,1016.14
2019-03-25T03:55:46.447Z,1016.09
2019-03-25T03:56:46.227Z,1016.16
2019-03-25T03:57:46.256Z,1016.07
2019-03-25T03:58:46.230Z,1016.12
2019-03-25T03:59:46.305Z,1016.04
2019-03-25T04:00:46.339Z,1016.04
2019-03-25T04:01:46.623Z,1016.08
2019-03-25T04:02:46.356Z,1016.09
2019-03-25T04:03:46.384Z,1016.03
2019-03-25T04:04:46.495Z,1016.09
2019-03-25T04:05:46.499Z,1016.02
2019-03-25T04:06:46.526Z,1015.99
2019-03-25T04:08:46.544Z,1016.09
2019-03-25T04:09:46.922Z,1016.04
2019-03-25T04:12:46.715Z,1016.06
2019-03-25T04:13:46.841Z,1016.02
2019-03-25T04:14:46.763Z,1016.04
2019-03-25T04:15:47.058Z,1016.05
2019-03-25T04:16:46.781Z,1016.05
2019-03-25T04:17:46.969Z,1015.98
2019-03-25T04:18:46.895Z,1016.03
2019-03-25T04:19:46.897Z,1015.98
2019-03-25T04:20:46.899Z,1016.06
2019-03-25T04:21:46.996Z,1016.07
2019-03-25T04:23:47.345Z,1016.06
2019-03-25T04:24:47.026Z,1016.07
2019-03-25T04:25:47.058Z,1015.99
2019-03-25T04:26:47.137Z,1016.11
2019-03-25T04:27:47.111Z,1016.05
2019-03-25T04:28:47.196Z,1016.12
2019-03-25T04:29:47.170Z,1016.09
2019-03-25T04:30:47.558Z,1016.04
2019-03-25T04:31:47.245Z,1016.22
2019-03-25T04:32:47.268Z,1016.22
2019-03-25T04:33:47.347Z,1016.22
2019-03-25T04:34:47.376Z,1016.19
2019-03-25T04:35:47.355Z,1016.46
2019-03-25T04:36:47.390Z,1016.17
2019-03-25T04:37:47.722Z,1016.16
2019-03-25T04:38:47.495Z,1016.30
2019-03-25T04:39:47.478Z,1016.23
2019-03-25T04:40:47.558Z,1016.35
2019-03-25T04:41:47.589Z,1016.32
2019-03-25T04:42:47.631Z,1016.39
2019-03-25T04:43:47.653Z,1016.32
2019-03-25T04:44:47.934Z,1016.39
2019-03-25T04:45:47.662Z,1016.36
2019-03-25T04:46:47.755Z,1016.49
2019-03-25T04:49:47.974Z,1016.35
2019-03-25T04:50:47.867Z,1016.38
2019-03-25T04:51:48.198Z,1016.39
2019-03-25T04:52:47.917Z,1016.45
2019-03-25T04:53:47.953Z,1016.45
2019-03-25T04:54:47.979Z,1016.37
2019-03-25T04:55:47.959Z,1016.41
2019-03-25T04:56:48.047Z,1016.42
2019-03-25T04:57:48.074Z,1016.50
2019-03-25T04:58:48.409Z,1016.44
2019-03-25T04:59:48.079Z,1016.45
2019-03-25T05:00:48.188Z,1016.51
2019-03-25T05:01:48.204Z,1016.57
2019-03-25T05:02:48.335Z,1016.44
2019-03-25T05:03:48.257Z,1016.31
2019-03-25T05:04:48.229Z,1016.54
2019-03-25T05:05:48.615Z,1016.46
2019-03-25T05:06:48.295Z,1016.35
2019-03-25T05:07:48.328Z,1016.60
2019-03-25T05:08:48.411Z,1016.53
2019-03-25T05:09:48.439Z,1016.66
2019-03-25T05:10:48.465Z,1016.51
2019-03-25T05:11:48.494Z,1016.60
2019-03-25T05:12:48.832Z,1016.68
2019-03-25T05:13:48.559Z,1016.77
2019-03-25T05:14:48.592Z,1016.64
2019-03-25T05:15:48.619Z,1016.62
2019-03-25T05:16:48.598Z,1016.50
2019-03-25T05:17:48.690Z,1016.46
2019-03-25T05:18:48.703Z,1016.45
2019-03-25T05:19:49.032Z,1016.47
2019-03-25T05:20:48.714Z,1016.51
2019-03-25T05:21:48.763Z,1016.34
2019-03-25T05:22:48.786Z,1016.38
2019-03-25T05:23:48.854Z,1016.34
2019-03-25T05:24:48.886Z,1016.31
2019-03-25T05:25:48.932Z,1016.29
2019-03-25T05:26:51.199Z,1016.37
2019-03-25T05:27:48.934Z,1016.40
2019-03-25T05:28:49.010Z,1016.29
2019-03-25T05:29:49.045Z,1016.34
2019-03-25T05:30:49.028Z,1016.41
2019-03-25T05:31:49.097Z,1016.38
2019-03-25T05:32:49.079Z,1016.39
2019-03-25T05:33:49.466Z,1016.35
2019-03-25T05:34:49.140Z,1016.42
2019-03-25T05:35:49.171Z,1016.40
2019-03-25T05:36:49.246Z,1016.38
2019-03-25T05:37:49.282Z,1016.45
2019-03-25T05:38:49.253Z,1016.42
2019-03-25T05:39:49.292Z,1016.48
2019-03-25T05:40:49.667Z,1016.47
2019-03-25T05:41:49.407Z,1016.45
2019-03-25T05:42:49.428Z,1016.50
2019-03-25T05:43:49.456Z,1016.51
2019-03-25T05:44:49.434Z,1016.41
2019-03-25T05:45:49.530Z,1016.45
2019-03-25T05:46:49.564Z,1016.49
2019-03-25T05:47:49.877Z,1016.47
2019-03-25T05:48:49.558Z,1016.48
2019-03-25T05:49:49.746Z,1016.43
2019-03-25T05:50:49.625Z,1016.45
2019-03-25T05:51:49.706Z,1016.50
2019-03-25T05:52:49.679Z,1016.46
2019-03-25T05:53:49.712Z,1016.59
2019-03-25T05:54:50.101Z,1016.61
2019-03-25T05:55:49.867Z,1016.53
2019-03-25T05:56:49.848Z,1016.52
2019-03-25T05:57:49.873Z,1016.59
2019-03-25T05:58:49.861Z,1016.55
2019-03-25T05:59:49.940Z,1016.61
2019-03-25T06:00:49.916Z,1016.54
2019-03-25T06:01:50.324Z,1016.57
2019-03-25T06:02:49.980Z,1016.57
2019-03-25T06:03:50.011Z,1016.58
2019-03-25T06:04:50.084Z,1016.53
2019-03-25T06:05:50.120Z,1016.53
2019-03-25T06:06:52.027Z,1016.71
2019-03-25T06:07:50.470Z,1016.54
2019-03-25T06:08:50.155Z,1016.55
2019-03-25T06:09:50.245Z,1016.58
2019-03-25T06:10:50.218Z,1016.58
2019-03-25T06:11:50.255Z,1016.61
2019-03-25T06:12:50.339Z,1016.69
2019-03-25T06:13:50.658Z,1016.57
2019-03-25T06:14:50.394Z,1016.59
2019-03-25T06:15:50.362Z,1016.60
2019-03-25T06:16:50.400Z,1016.57
2019-03-25T06:17:50.471Z,1016.59
2019-03-25T06:18:50.519Z,1016.69
2019-03-25T06:19:50.483Z,1016.69
2019-03-25T06:20:50.517Z,1016.60
2019-03-25T06:21:50.544Z,1016.61
2019-03-25T06:22:50.623Z,1016.64
2019-03-25T06:23:50.605Z,1016.72
2019-03-25T06:24:50.641Z,1016.69
2019-03-25T06:25:51.046Z,1016.69
2019-03-25T06:26:50.692Z,1016.73
2019-03-25T06:27:50.778Z,1016.77
2019-03-25T06:28:50.754Z,1016.76
2019-03-25T06:29:50.783Z,1016.74
2019-03-25T06:30:50.810Z,1016.77
2019-03-25T06:31:50.859Z,1016.72
2019-03-25T06:32:51.175Z,1016.74
2019-03-25T06:33:50.952Z,1016.73
2019-03-25T06:34:50.946Z,1016.78
2019-03-25T06:35:50.964Z,1016.74
2019-03-25T06:36:51.001Z,1016.73
2019-03-25T06:37:51.075Z,1016.85
2019-03-25T06:38:51.103Z,1016.70
2019-03-25T06:39:51.429Z,1016.78
2019-03-25T06:40:51.163Z,1016.78
2019-03-25T06:41:51.193Z,1016.81
2019-03-25T06:42:51.172Z,1016.82
2019-03-25T06:43:51.276Z,1016.86
2019-03-25T06:44:51.288Z,1016.82
2019-03-25T06:45:51.316Z,1016.84
2019-03-25T06:46:51.645Z,1016.78
2019-03-25T06:47:51.333Z,1016.85
2019-03-25T06:48:51.361Z,1016.79
2019-03-25T06:49:51.396Z,1016.82
2019-03-25T06:50:51.538Z,1016.82
2019-03-25T06:51:51.453Z,1016.87
2019-03-25T06:52:51.517Z,1016.91
2019-03-25T06:53:51.849Z,1016.98
2019-03-25T06:54:51.534Z,1016.90
2019-03-25T06:55:51.619Z,1016.95
2019-03-25T06:56:51.594Z,1016.95
2019-03-25T06:57:51.669Z,1016.96
2019-03-25T06:58:51.703Z,1016.98
2019-03-25T06:59:51.739Z,1017.18
2019-03-25T07:00:52.061Z,1017.03
2019-03-25T07:01:51.804Z,1016.96
2019-03-25T07:02:51.833Z,1017.15
2019-03-25T07:03:51.845Z,1016.99
2019-03-25T07:04:51.827Z,1017.10
2019-03-25T07:05:51.876Z,1017.09
2019-03-25T07:06:51.937Z,1016.96
2019-03-25T07:07:52.282Z,1017.02
2019-03-25T07:08:52.005Z,1017.02
2019-03-25T07:09:52.038Z,1017.02
2019-03-25T07:10:52.011Z,1016.98
2019-03-25T07:11:52.086Z,1016.98
2019-03-25T07:12:52.117Z,1016.95
2019-03-25T07:13:52.108Z,1017.01
2019-03-25T07:14:52.478Z,1016.80
2019-03-25T07:16:52.191Z,1016.89
2019-03-25T07:17:52.218Z,1016.96
2019-03-25T07:18:52.302Z,1017.13
2019-03-25T07:20:52.313Z,1016.88
2019-03-25T07:21:52.387Z,1016.88
2019-03-25T07:22:52.369Z,1016.94
2019-03-25T07:23:52.551Z,1016.91
2019-03-25T07:24:52.429Z,1017.10
2019-03-25T07:25:52.518Z,1017.02
2019-03-25T07:26:52.489Z,1017.07
2019-03-25T07:27:52.866Z,1017.02
2019-03-25T07:28:52.807Z,1017.28
2019-03-25T07:29:52.583Z,1017.08
2019-03-25T07:30:52.674Z,1017.01
2019-03-25T07:31:52.639Z,1017.04
2019-03-25T07:32:52.720Z,1017.14
2019-03-25T07:33:53.150Z,1016.97
2019-03-25T07:34:52.777Z,1017.31
2019-03-25T07:35:52.760Z,1017.02
2019-03-25T07:36:52.784Z,1017.04
2019-03-25T07:37:52.820Z,1016.99
2019-03-25T07:38:52.893Z,1017.05
2019-03-25T07:39:53.226Z,1017.17
2019-03-25T07:40:53.056Z,1016.99
2019-03-25T07:41:52.995Z,1017.11
2019-03-25T07:42:52.969Z,1017.23
2019-03-25T07:43:53.000Z,1017.03
2019-03-25T07:44:53.084Z,1017.03
2019-03-25T07:45:53.113Z,1017.04
2019-03-25T07:46:53.441Z,1017.01
2019-03-25T07:47:53.116Z,1017.02
2019-03-25T07:48:53.152Z,1017.02
2019-03-25T07:49:53.237Z,1017.01
2019-03-25T07:50:53.363Z,1017.07
2019-03-25T07:51:53.241Z,1017.00
2019-03-25T07:52:53.268Z,1017.00
2019-03-25T07:53:53.598Z,1017.04
2019-03-25T07:54:53.328Z,1017.17
2019-03-25T07:55:53.372Z,1017.01
2019-03-25T07:56:53.399Z,1017.02
2019-03-25T07:57:53.472Z,1016.99
2019-03-25T07:58:53.521Z,1017.00
2019-03-25T07:59:53.493Z,1016.98
2019-03-25T08:00:53.557Z,1017.01
2019-03-25T08:01:53.544Z,1017.01
2019-03-25T08:02:53.620Z,1017.04
2019-03-25T08:04:53.638Z,1017.10
2019-03-25T08:05:53.732Z,1017.11
2019-03-25T08:06:54.015Z,1017.17
2019-03-25T08:07:53.768Z,1017.30
2019-03-25T08:09:03.347Z,1017.18
2019-03-25T08:09:53.797Z,1017.25
2019-03-25T08:10:53.893Z,1017.20
2019-03-25T08:11:53.833Z,1017.25
2019-03-25T08:12:53.906Z,1017.15
2019-03-25T08:13:53.951Z,1017.20
2019-03-25T08:14:54.017Z,1017.17
2019-03-25T08:15:53.967Z,1017.13
2019-03-25T08:16:53.985Z,1017.15
2019-03-25T08:17:54.086Z,1017.13
2019-03-25T08:18:54.100Z,1017.07
2019-03-25T08:19:54.383Z,1017.15
2019-03-25T08:20:54.121Z,1017.06
2019-03-25T08:21:54.189Z,1017.08
2019-03-25T08:22:54.166Z,1017.05
2019-03-25T08:23:54.258Z,1017.12
2019-03-25T08:24:54.348Z,1016.99
2019-03-25T08:25:54.616Z,1017.03
2019-03-25T08:26:54.291Z,1017.03
2019-03-25T08:27:59.869Z,1017.11
2019-03-25T08:28:54.350Z,1017.11
2019-03-25T08:29:54.444Z,1017.13
2019-03-25T08:30:54.508Z,1017.05
2019-03-25T08:31:54.443Z,1017.12
2019-03-25T08:32:54.538Z,1017.11
2019-03-25T08:33:54.552Z,1017.19
2019-03-25T08:34:54.581Z,1017.12
2019-03-25T08:35:54.561Z,1017.10
2019-03-25T08:36:54.587Z,1017.10
2019-03-25T08:37:54.969Z,1017.16
2019-03-25T08:38:54.697Z,1017.11
2019-03-25T08:39:54.679Z,1017.06
2019-03-25T08:40:54.711Z,1017.18
2019-03-25T08:41:54.743Z,1017.14
2019-03-25T08:42:54.825Z,1017.22
2019-03-25T08:43:54.852Z,1017.30
2019-03-25T08:44:55.179Z,1017.20
2019-03-25T08:45:54.913Z,1017.21
2019-03-25T08:46:54.942Z,1017.23
2019-03-25T08:48:55.015Z,1017.20
2019-03-25T08:50:55.017Z,1017.28
2019-03-25T08:51:55.049Z,1017.19
2019-03-25T08:54:55.191Z,1017.00
2019-03-25T08:55:55.215Z,1017.18
2019-03-25T08:56:55.267Z,1017.06
2019-03-25T08:58:55.311Z,1017.18
2019-03-25T08:59:57.483Z,1017.20
2019-03-25T09:00:55.320Z,1017.18
2019-03-25T09:01:55.347Z,1017.28
2019-03-25T09:02:55.391Z,1017.30
2019-03-25T09:03:55.756Z,1017.34
2019-03-25T09:04:55.500Z,1017.35
2019-03-25T09:05:55.465Z,1017.38
2019-03-25T09:06:55.496Z,1017.43
2019-03-25T09:07:55.582Z,1017.39
2019-03-25T09:08:55.611Z,1017.39
2019-03-25T09:09:55.646Z,1017.46
2019-03-25T09:10:55.970Z,1017.40
2019-03-25T09:11:55.709Z,1017.45
2019-03-25T09:12:55.737Z,1017.37
2019-03-25T09:13:55.764Z,1017.39
2019-03-25T09:14:55.795Z,1017.39
2019-03-25T09:15:55.781Z,1017.43
2019-03-25T09:16:55.802Z,1017.43
2019-03-25T09:17:55.841Z,1017.39
2019-03-25T09:18:55.864Z,1017.41
2019-03-25T09:19:55.898Z,1017.39
2019-03-25T09:20:55.934Z,1017.64
2019-03-25T09:21:55.955Z,1017.09
2019-03-25T09:22:56.039Z,1017.21
2019-03-25T09:23:56.018Z,1017.29
2019-03-25T09:24:56.092Z,1017.52
2019-03-25T09:25:56.125Z,1017.27
2019-03-25T09:26:56.102Z,1017.25
2019-03-25T09:27:56.186Z,1017.25
2019-03-25T09:28:56.466Z,1017.48
2019-03-25T09:29:56.201Z,1017.32
2019-03-25T09:30:56.286Z,1017.34
2019-03-25T09:31:56.268Z,1017.58
2019-03-25T09:32:56.341Z,1017.45
2019-03-25T09:33:56.370Z,1017.84
2019-03-25T09:34:56.362Z,1017.47
2019-03-25T09:35:56.859Z,1017.55
2019-03-25T09:36:56.462Z,1017.52
2019-03-25T09:37:56.493Z,1017.47
2019-03-25T09:38:56.468Z,1017.44
2019-03-25T09:39:56.499Z,1017.37
2019-03-25T09:40:56.588Z,1017.48
2019-03-25T09:41:56.566Z,1017.52
2019-03-25T09:42:56.652Z,1017.50
2019-03-25T09:43:56.623Z,1017.51
2019-03-25T09:44:56.655Z,1017.60
2019-03-25T09:45:56.736Z,1017.60
2019-03-25T09:46:56.766Z,1017.53
2019-03-25T09:47:56.748Z,1017.62
2019-03-25T09:48:57.075Z,1017.52
2019-03-25T09:49:56.862Z,1017.56
2019-03-25T09:50:56.835Z,1017.62
2019-03-25T09:51:56.911Z,1017.61
2019-03-25T09:52:56.942Z,1017.58
2019-03-25T09:53:56.927Z,1017.60
2019-03-25T09:54:56.994Z,1017.60
2019-03-25T09:55:56.993Z,1017.62
2019-03-25T09:56:57.069Z,1017.60
2019-03-25T09:57:57.096Z,1017.60
2019-03-25T09:58:57.131Z,1017.61
2019-03-25T09:59:57.113Z,1017.59
2019-03-25T10:00:57.189Z,1017.64
2019-03-25T10:01:57.518Z,1017.52
2019-03-25T10:03:57.231Z,1017.57
2019-03-25T10:04:57.311Z,1017.64
2019-03-25T10:05:57.296Z,1017.63
2019-03-25T10:06:57.329Z,1017.72
2019-03-25T10:07:57.348Z,1017.72
2019-03-25T10:08:57.735Z,1017.71
2019-03-25T10:09:57.467Z,1017.74
2019-03-25T10:10:57.523Z,1017.72
2019-03-25T10:11:57.474Z,1017.61
2019-03-25T10:12:57.504Z,1017.62
2019-03-25T10:13:57.594Z,1017.68
2019-03-25T10:14:57.564Z,1017.60
2019-03-25T10:15:57.645Z,1017.65
2019-03-25T10:16:57.628Z,1017.65
2019-03-25T10:17:57.661Z,1017.65
2019-03-25T10:18:57.690Z,1017.70
2019-03-25T10:19:57.787Z,1017.67
2019-03-25T10:20:58.122Z,1017.81
2019-03-25T10:21:57.783Z,1017.79
2019-03-25T10:22:57.882Z,1017.83
2019-03-25T10:23:57.882Z,1017.91
2019-03-25T10:24:57.900Z,1017.88
2019-03-25T10:25:57.960Z,1017.96
2019-03-25T10:26:58.258Z,1017.97
2019-03-25T10:27:58.049Z,1017.93
2019-03-25T10:28:58.002Z,1017.89
2019-03-25T10:29:58.092Z,1017.82
2019-03-25T10:30:58.074Z,1017.88
2019-03-25T10:31:58.143Z,1017.86
2019-03-25T10:32:58.187Z,1017.94
2019-03-25T10:33:58.514Z,1017.87
2019-03-25T10:34:58.191Z,1018.04
2019-03-25T10:35:58.212Z,1018.11
2019-03-25T10:36:58.301Z,1018.03
2019-03-25T10:37:58.289Z,1018.25
2019-03-25T10:38:58.357Z,1018.08
2019-03-25T10:39:58.349Z,1018.17
2019-03-25T10:40:58.377Z,1018.22
2019-03-25T10:41:58.443Z,1018.18
2019-03-25T10:42:58.531Z,1018.16
2019-03-25T10:43:58.516Z,1018.18
2019-03-25T10:44:58.536Z,1018.16
2019-03-25T10:45:58.571Z,1018.18
2019-03-25T10:46:58.610Z,1018.25
2019-03-25T10:47:58.630Z,1018.26
2019-03-25T10:48:58.628Z,1018.32
2019-03-25T10:49:58.692Z,1018.45
2019-03-25T10:50:58.683Z,1018.46
2019-03-25T10:51:58.754Z,1018.38
2019-03-25T10:52:58.900Z,1018.41
2019-03-25T10:53:58.913Z,1018.36
2019-03-25T10:55:58.827Z,1018.33
2019-03-25T10:56:58.865Z,1018.40
2019-03-25T10:57:58.939Z,1018.27
2019-03-25T10:58:59.272Z,1018.32
2019-03-25T10:59:58.957Z,1018.30
2019-03-25T11:00:58.989Z,1018.32
2019-03-25T11:01:59.061Z,1018.19
2019-03-25T11:02:59.100Z,1018.27
2019-03-25T11:03:59.076Z,1018.28
2019-03-25T11:04:59.405Z,1018.24
2019-03-25T11:05:59.140Z,1018.17
2019-03-25T11:06:59.213Z,1018.25
2019-03-25T11:07:59.188Z,1018.24
2019-03-25T11:08:59.225Z,1018.25
2019-03-25T11:09:59.257Z,1018.20
2019-03-25T11:10:59.286Z,1018.12
2019-03-25T11:11:59.367Z,1018.17
2019-03-25T11:12:59.399Z,1018.08
2019-03-25T11:13:59.429Z,1018.20
2019-03-25T11:14:59.458Z,1018.25
2019-03-25T11:15:59.489Z,1018.24
2019-03-25T11:16:59.820Z,1018.11
2019-03-25T11:17:59.504Z,1018.24
2019-03-25T11:18:59.530Z,1018.26
2019-03-25T11:19:59.613Z,1018.20
2019-03-25T11:20:59.591Z,1018.24
2019-03-25T11:21:59.627Z,1018.29
2019-03-25T11:22:59.653Z,1018.18
2019-03-25T11:23:59.993Z,1018.25
2019-03-25T11:24:59.775Z,1018.22
2019-03-25T11:25:59.746Z,1018.25
2019-03-25T11:26:59.772Z,1018.18
2019-03-25T11:27:59.861Z,1018.18
2019-03-25T11:29:04.617Z,1018.11
2019-03-25T11:29:59.928Z,1018.18
2019-03-25T11:31:00.349Z,1018.13
2019-03-25T11:31:59.983Z,1018.15
2019-03-25T11:32:59.965Z,1018.09
2019-03-25T11:33:59.991Z,1018.12
2019-03-25T11:35:00.028Z,1018.10
2019-03-25T11:36:00.108Z,1018.09
2019-03-25T11:37:00.084Z,1018.03
2019-03-25T11:38:00.473Z,1018.04
2019-03-25T11:39:00.157Z,1018.06
2019-03-25T11:40:00.375Z,1018.06
2019-03-25T11:41:00.371Z,1018.06
2019-03-25T11:42:00.300Z,1018.17
2019-03-25T11:43:00.262Z,1018.18
2019-03-25T11:44:00.318Z,1018.22
2019-03-25T11:45:00.375Z,1018.28
2019-03-25T11:46:00.419Z,1018.25
2019-03-25T11:47:00.438Z,1018.27
2019-03-25T11:48:00.468Z,1018.28
2019-03-25T11:49:00.466Z,1018.33
2019-03-25T11:50:00.484Z,1018.38
2019-03-25T11:51:00.816Z,1018.45
2019-03-25T11:52:00.544Z,1018.32
2019-03-25T11:53:00.659Z,1018.41
2019-03-25T11:54:00.664Z,1018.57
2019-03-25T11:55:00.725Z,1018.61
2019-03-25T11:56:00.677Z,1018.62
2019-03-25T11:57:00.703Z,1018.59
2019-03-25T11:58:00.734Z,1018.54
2019-03-25T11:59:02.906Z,1018.56
2019-03-25T12:00:00.843Z,1018.57
2019-03-25T12:01:00.822Z,1018.55
2019-03-25T12:02:00.899Z,1018.68
2019-03-25T12:03:01.037Z,1018.69
2019-03-25T12:04:00.963Z,1018.69
2019-03-25T12:05:00.959Z,1018.62
2019-03-25T12:06:01.020Z,1018.62
2019-03-25T12:07:01.052Z,1018.59
2019-03-25T12:08:01.102Z,1018.58
2019-03-25T12:09:01.068Z,1018.68
2019-03-25T12:10:01.445Z,1018.60
2019-03-25T12:11:01.129Z,1018.65
2019-03-25T12:12:01.163Z,1018.61
2019-03-25T12:13:01.239Z,1018.58
2019-03-25T12:14:01.277Z,1018.51
2019-03-25T12:15:01.743Z,1018.52
2019-03-25T12:16:01.654Z,1018.55
2019-03-25T12:17:01.313Z,1018.58
2019-03-25T12:18:01.409Z,1018.53
2019-03-25T12:19:01.431Z,1018.58
2019-03-25T12:20:01.418Z,1018.49
2019-03-25T12:21:01.444Z,1018.51
2019-03-25T12:22:01.550Z,1018.50
2019-03-25T12:23:01.966Z,1018.51
2019-03-25T12:24:01.586Z,1018.48
2019-03-25T12:25:01.719Z,1018.53
2019-03-25T12:26:01.647Z,1018.48
2019-03-25T12:27:01.720Z,1018.54
2019-03-25T12:28:01.659Z,1018.48
2019-03-25T12:29:01.686Z,1018.52
2019-03-25T12:30:01.803Z,1018.43
2019-03-25T12:31:01.794Z,1018.49